Terminal Aerodrome Forecast
Issued by NWS Buffalo, NY

Home | Current Version | Previous Version | Text Only | Print | Product List | Glossary On
Versions: 1 2 3 4 5 6 7 8 9 10 11 12 13 14 15 16 17 18 19 20 21 22 23 24
000
FTUS41 KBUF 281736
TAFART
TAF
KART 281736Z 2818/2918 24011G18KT P6SM SKC
     FM282300 22008KT P6SM SCT250
     FM290300 18006KT P6SM SCT250
     FM291100 13004KT 6SM -SHRA OVC070
     FM291400 15007KT 6SM -SHRA OVC035
     FM291700 18011KT 6SM -SHRA OVC020=

USA.gov is the U.S. government's official web portal to all federal, state and local government web resources and services.